Time;durP1;ratioP1;P1;durP2;ratioP2;P2;SDS_P1;SDS_P2;PMS_P1;PMS_P2;Temp;Humidity;BMP_temperature;BMP_pressure;BME280_temperature;BME280_humidity;BME280_pressure;Samples;Min_cycle;Max_cycle;Signal;HPM_P1;HPM_P2
2023/04/22 00:01:23;;;;;;;14.70;8.13;;;12.40;99.90;;;;;;5041519;28;20094;-49
2023/04/22 00:03:50;;;;;;;11.30;7.90;;;12.40;99.90;;;;;;5048113;28;20142;-51
2023/04/22 00:06:18;;;;;;;10.48;7.57;;;12.40;99.90;;;;;;5036615;28;20060;-54
2023/04/22 00:08:45;;;;;;;12.27;7.63;;;12.40;99.90;;;;;;5037423;28;20751;-46
2023/04/22 00:11:12;;;;;;;11.20;7.80;;;12.40;99.90;;;;;;5048366;28;20072;-48
2023/04/22 00:13:40;;;;;;;8.65;7.28;;;12.30;99.90;;;;;;5049357;28;20059;-51
2023/04/22 00:16:07;;;;;;;8.45;7.53;;;12.30;99.90;;;;;;5032536;28;20208;-49
2023/04/22 00:18:35;;;;;;;11.20;8.32;;;12.30;99.90;;;;;;5022833;28;20049;-47
2023/04/22 00:21:03;;;;;;;10.75;7.80;;;12.30;99.90;;;;;;5034711;28;20101;-50
2023/04/22 00:23:30;;;;;;;10.40;7.57;;;12.40;99.90;;;;;;5035729;28;20041;-46
2023/04/22 00:25:57;;;;;;;9.25;7.50;;;12.40;99.90;;;;;;5047075;28;20045;-49
2023/04/22 00:28:25;;;;;;;10.57;6.55;;;12.40;99.90;;;;;;5041200;28;20045;-48
2023/04/22 00:30:52;;;;;;;14.57;7.90;;;12.40;99.90;;;;;;5031376;28;20059;-52
2023/04/22 00:33:19;;;;;;;8.30;7.32;;;12.40;99.90;;;;;;5049050;28;20051;-49
2023/04/22 00:35:46;;;;;;;10.18;7.15;;;12.40;99.90;;;;;;5047753;28;20067;-54
2023/04/22 00:38:14;;;;;;;11.50;7.80;;;12.40;99.90;;;;;;5036105;28;20045;-47
2023/04/22 00:40:41;;;;;;;11.32;7.75;;;12.40;99.90;;;;;;5043509;28;20549;-50
2023/04/22 00:43:09;;;;;;;11.00;7.68;;;12.40;99.90;;;;;;5032586;28;20049;-48
2023/04/22 00:45:36;;;;;;;9.75;7.72;;;12.40;99.90;;;;;;5045379;28;20126;-50
2023/04/22 00:48:04;;;;;;;9.20;7.88;;;12.30;99.90;;;;;;5034931;28;20106;-49
2023/04/22 00:50:32;;;;;;;10.00;7.35;;;12.30;99.90;;;;;;5053364;28;20071;-46
2023/04/22 00:52:59;;;;;;;9.10;7.28;;;12.30;99.90;;;;;;5036649;28;20505;-48
2023/04/22 00:55:27;;;;;;;8.77;7.00;;;12.30;99.90;;;;;;5045971;28;20545;-51
2023/04/22 00:57:57;;;;;;;15.65;7.88;;;12.30;99.90;;;;;;5028757;28;20798;-49
2023/04/22 01:00:26;;;;;;;10.95;7.45;;;12.30;99.90;;;;;;5044188;28;20118;-47
2023/04/22 01:02:54;;;;;;;10.07;7.13;;;12.20;99.90;;;;;;5030311;28;20049;-45
2023/04/22 01:05:23;;;;;;;10.70;7.78;;;12.20;99.90;;;;;;5040698;28;20472;-49
2023/04/22 01:07:51;;;;;;;9.70;7.97;;;12.10;99.90;;;;;;5051061;28;20167;-46
2023/04/22 01:10:19;;;;;;;13.73;8.98;;;12.10;99.90;;;;;;5049047;28;20049;-48
2023/04/22 01:12:46;;;;;;;11.63;7.70;;;12.10;99.90;;;;;;5045011;28;20155;-49
2023/04/22 01:15:13;;;;;;;9.95;7.57;;;12.10;99.90;;;;;;5051450;28;20055;-50
2023/04/22 01:17:41;;;;;;;11.40;7.38;;;12.10;99.90;;;;;;5026863;28;20053;-50
2023/04/22 01:20:09;;;;;;;11.95;8.52;;;12.10;99.90;;;;;;5051525;28;20033;-48
2023/04/22 01:22:41;;;;;;;11.60;7.60;;;12.10;99.90;;;;;;5046184;28;20060;-49
2023/04/22 01:25:10;;;;;;;11.07;7.75;;;12.10;99.90;;;;;;5021724;28;20730;-47
2023/04/22 01:27:38;;;;;;;9.82;7.65;;;12.00;99.90;;;;;;5045481;28;20421;-48
2023/04/22 01:30:07;;;;;;;18.02;9.95;;;12.10;99.90;;;;;;5042655;28;20072;-47
2023/04/22 01:32:35;;;;;;;22.73;13.85;;;12.00;99.90;;;;;;5037857;28;20056;-49
2023/04/22 01:35:02;;;;;;;15.18;10.35;;;12.00;99.90;;;;;;5046312;28;20509;-50
2023/04/22 01:37:30;;;;;;;13.10;8.82;;;12.00;99.90;;;;;;5045182;28;20462;-49
2023/04/22 01:39:58;;;;;;;10.02;7.90;;;12.00;99.90;;;;;;5033669;28;20111;-49
2023/04/22 01:42:25;;;;;;;15.18;8.65;;;12.00;99.90;;;;;;5045057;28;20049;-54
2023/04/22 01:44:53;;;;;;;11.40;8.23;;;11.90;99.90;;;;;;5026829;28;20545;-47
2023/04/22 01:47:20;;;;;;;12.77;8.18;;;12.00;99.90;;;;;;5021142;28;20124;-47
2023/04/22 01:49:47;;;;;;;10.63;8.05;;;12.00;99.90;;;;;;5028671;28;20102;-49
2023/04/22 01:52:15;;;;;;;13.82;8.40;;;12.00;99.90;;;;;;5038532;28;20049;-51
2023/04/22 01:54:42;;;;;;;12.45;8.30;;;12.00;99.90;;;;;;5037884;28;20065;-47
2023/04/22 01:57:12;;;;;;;14.73;8.63;;;12.00;99.90;;;;;;5040286;28;20045;-49
2023/04/22 01:59:40;;;;;;;14.93;8.07;;;11.90;99.90;;;;;;5032670;28;20037;-52
2023/04/22 02:02:08;;;;;;;12.07;8.32;;;11.90;99.90;;;;;;5034836;28;20514;-52
2023/04/22 02:04:35;;;;;;;15.75;8.50;;;11.90;99.90;;;;;;5040805;28;20067;-47
2023/04/22 02:07:03;;;;;;;14.18;8.00;;;11.90;99.90;;;;;;5020739;28;20132;-47
2023/04/22 02:09:34;;;;;;;13.93;8.07;;;11.90;99.90;;;;;;5037731;28;20521;-53
2023/04/22 02:12:01;;;;;;;12.48;8.57;;;11.80;99.90;;;;;;5040860;28;20050;-48
2023/04/22 02:14:28;;;;;;;15.73;8.00;;;11.80;99.90;;;;;;5034435;28;20100;-47
2023/04/22 02:17:02;;;;;;;13.30;7.72;;;11.80;99.90;;;;;;5033356;28;20037;-47
2023/04/22 02:19:29;;;;;;;13.23;7.97;;;11.80;99.90;;;;;;5030714;28;20525;-45
2023/04/22 02:21:57;;;;;;;17.13;8.45;;;11.80;99.90;;;;;;5024669;28;20124;-51
2023/04/22 02:24:24;;;;;;;13.43;8.23;;;11.80;99.90;;;;;;5043975;28;20124;-49
2023/04/22 02:26:51;;;;;;;10.70;7.97;;;11.80;99.90;;;;;;5040925;28;20045;-49
2023/04/22 02:29:19;;;;;;;14.63;8.32;;;11.80;99.90;;;;;;5037478;28;20175;-51
2023/04/22 02:31:46;;;;;;;11.68;7.85;;;11.80;99.90;;;;;;5021670;28;20088;-47
2023/04/22 02:34:13;;;;;;;11.13;7.28;;;11.70;99.90;;;;;;4988485;28;20157;-50
2023/04/22 02:36:41;;;;;;;14.13;7.90;;;11.70;99.90;;;;;;5041236;28;20132;-48
2023/04/22 02:39:08;;;;;;;12.82;8.30;;;11.70;99.90;;;;;;5023771;28;20334;-47
2023/04/22 02:41:36;;;;;;;10.10;7.60;;;11.60;99.90;;;;;;5029190;28;20064;-50
2023/04/22 02:44:04;;;;;;;14.85;8.20;;;11.60;99.90;;;;;;5040493;28;20056;-51
2023/04/22 02:46:31;;;;;;;15.57;8.30;;;11.60;99.90;;;;;;5032100;28;20048;-47
2023/04/22 02:48:58;;;;;;;13.38;8.32;;;11.60;99.90;;;;;;5049562;28;20065;-49
2023/04/22 02:51:26;;;;;;;10.63;8.05;;;11.60;99.90;;;;;;5042227;28;20504;-47
2023/04/22 02:53:53;;;;;;;12.25;7.90;;;11.50;99.90;;;;;;5038514;28;20068;-49
2023/04/22 02:56:21;;;;;;;15.10;8.27;;;11.50;99.90;;;;;;5022661;28;20372;-46
2023/04/22 02:58:48;;;;;;;11.93;7.90;;;11.50;99.90;;;;;;5032290;28;20041;-48
2023/04/22 03:01:15;;;;;;;13.48;8.35;;;11.40;99.90;;;;;;5032626;28;20049;-50
2023/04/22 03:03:43;;;;;;;18.13;8.60;;;11.30;99.90;;;;;;5031850;28;20045;-47
2023/04/22 03:06:17;;;;;;;9.93;8.32;;;11.40;99.90;;;;;;5031105;28;20037;-49
2023/04/22 03:08:44;;;;;;;9.00;8.05;;;11.30;99.90;;;;;;5012775;28;20064;-50
2023/04/22 03:11:12;;;;;;;15.50;8.68;;;11.30;99.90;;;;;;5037863;28;20091;-50
2023/04/22 03:13:41;;;;;;;13.48;8.48;;;11.20;99.90;;;;;;5020379;28;20084;-51
2023/04/22 03:16:08;;;;;;;13.05;8.93;;;11.20;99.90;;;;;;5040922;28;20425;-50
2023/04/22 03:18:37;;;;;;;13.65;8.25;;;11.20;99.90;;;;;;5023130;28;20048;-48
2023/04/22 03:21:06;;;;;;;14.35;8.63;;;11.10;99.90;;;;;;5020789;28;20136;-50
2023/04/22 03:23:33;;;;;;;11.40;8.48;;;11.10;99.90;;;;;;5020105;28;20045;-46
2023/04/22 03:26:00;;;;;;;14.00;8.40;;;11.00;99.90;;;;;;5018951;28;20087;-52
2023/04/22 03:28:28;;;;;;;13.70;9.00;;;10.90;99.90;;;;;;5026352;28;20099;-44
2023/04/22 03:30:55;;;;;;;14.90;8.98;;;10.90;99.90;;;;;;5017744;28;20048;-51
2023/04/22 03:33:22;;;;;;;12.70;9.00;;;10.90;99.90;;;;;;5044127;28;20472;-50
2023/04/22 03:35:55;;;;;;;11.85;8.02;;;10.80;99.90;;;;;;5018774;28;20532;-49
2023/04/22 03:38:23;;;;;;;16.95;10.43;;;10.80;99.90;;;;;;5011548;28;20045;-49
2023/04/22 03:40:52;;;;;;;13.65;9.30;;;10.70;99.90;;;;;;5010864;28;20046;-51
2023/04/22 03:43:30;;;;;;;16.38;8.98;;;10.70;99.90;;;;;;5025453;28;20063;-53
2023/04/22 03:46:03;;;;;;;13.35;8.30;;;10.70;99.90;;;;;;5020628;28;20106;-47
2023/04/22 03:48:34;;;;;;;15.55;8.23;;;10.60;99.90;;;;;;5019354;28;20452;-45
2023/04/22 03:51:07;;;;;;;9.75;8.15;;;10.60;99.90;;;;;;5028526;22;20132;-44
2023/04/22 03:53:36;;;;;;;14.32;8.65;;;10.50;99.90;;;;;;5012178;28;20050;-44
2023/04/22 03:56:04;;;;;;;10.90;8.82;;;10.50;99.90;;;;;;5017932;28;20038;-42
2023/04/22 03:58:35;;;;;;;10.82;8.00;;;10.50;99.90;;;;;;5013972;28;20049;-43
2023/04/22 04:01:06;;;;;;;11.95;8.88;;;10.50;99.90;;;;;;5009648;28;20443;-45
2023/04/22 04:03:34;;;;;;;13.45;8.25;;;10.50;99.90;;;;;;5008973;28;20077;-44
2023/04/22 04:06:02;;;;;;;12.60;8.02;;;10.40;99.90;;;;;;5000631;28;20062;-43
2023/04/22 04:08:30;;;;;;;11.55;7.65;;;10.40;99.90;;;;;;5010065;28;20049;-45
2023/04/22 04:10:58;;;;;;;14.57;8.50;;;10.50;99.90;;;;;;5009082;28;20465;-39
2023/04/22 04:13:31;;;;;;;15.05;7.90;;;10.40;99.90;;;;;;5011106;28;20129;-41
2023/04/22 04:16:16;;;;;;;10.52;8.25;;;10.50;99.90;;;;;;5012617;28;20065;-41
2023/04/22 04:18:50;;;;;;;13.38;8.35;;;10.50;99.90;;;;;;5012094;28;20065;-44
2023/04/22 04:21:19;;;;;;;11.10;8.35;;;10.50;99.90;;;;;;5011355;28;20046;-41
2023/04/22 04:23:50;;;;;;;15.93;11.27;;;10.50;99.90;;;;;;5016268;28;20042;-45
2023/04/22 04:26:22;;;;;;;;;;;10.50;99.90;;;;;;5015813;28;20076;-41
2023/04/22 04:28:56;;;;;;;12.38;8.80;;;10.60;99.90;;;;;;5016100;28;19921;-41
2023/04/22 04:31:23;;;;;;;16.20;8.70;;;10.60;99.90;;;;;;5022477;28;20054;-44
2023/04/22 04:33:56;;;;;;;15.60;9.30;;;10.60;99.90;;;;;;5025597;28;20053;-42
2023/04/22 04:36:28;;;;;;;13.02;8.35;;;10.60;99.90;;;;;;5025483;28;20045;-44
2023/04/22 04:39:05;;;;;;;13.32;9.77;;;10.70;99.90;;;;;;5032829;28;20037;-43
2023/04/22 04:41:33;;;;;;;14.88;9.70;;;10.70;99.90;;;;;;5015683;28;20046;-46
2023/04/22 04:44:02;;;;;;;17.00;9.85;;;10.80;99.90;;;;;;5016299;28;20054;-44
2023/04/22 04:46:33;;;;;;;14.77;9.70;;;10.90;99.90;;;;;;5015631;28;20068;-40
2023/04/22 04:49:03;;;;;;;15.52;9.05;;;10.90;99.90;;;;;;5022959;28;20132;-43
2023/04/22 04:51:36;;;;;;;19.42;11.52;;;10.90;99.90;;;;;;5022996;28;20052;-42
2023/04/22 04:54:04;;;;;;;17.00;10.32;;;11.00;99.90;;;;;;5016945;28;20046;-42
2023/04/22 04:56:35;;;;;;;17.63;10.60;;;11.00;99.90;;;;;;5010509;28;20064;-41
2023/04/22 04:59:03;;;;;;;12.68;8.88;;;11.10;99.90;;;;;;5018523;28;20096;-43
2023/04/22 05:01:32;;;;;;;14.27;8.30;;;11.20;99.90;;;;;;5020221;28;20128;-41
2023/04/22 05:04:05;;;;;;;16.02;9.05;;;11.20;99.90;;;;;;5019331;28;20149;-43
2023/04/22 05:06:33;;;;;;;14.38;8.82;;;11.30;99.90;;;;;;5019560;28;20050;-41
2023/04/22 05:09:03;;;;;;;15.90;8.82;;;11.40;99.90;;;;;;5020040;28;20034;-42
2023/04/22 05:11:30;;;;;;;12.52;8.68;;;11.50;99.90;;;;;;5018322;28;20050;-44
2023/04/22 05:14:01;;;;;;;16.95;8.13;;;11.50;99.90;;;;;;5018618;28;20038;-46
2023/04/22 05:16:33;;;;;;;14.25;8.38;;;11.60;99.90;;;;;;5021040;28;20042;-41
2023/04/22 05:19:01;;;;;;;12.70;8.30;;;11.70;99.90;;;;;;5020367;28;20065;-44
2023/04/22 05:21:28;;;;;;;12.25;8.90;;;11.80;99.90;;;;;;5021850;28;20049;-44
2023/04/22 05:23:55;;;;;;;16.50;9.15;;;11.80;99.90;;;;;;5024672;28;20418;-43
2023/04/22 05:26:24;;;;;;;14.18;8.60;;;11.90;99.90;;;;;;5007265;28;20096;-42
2023/04/22 05:28:51;;;;;;;12.88;8.80;;;12.00;99.90;;;;;;5022531;28;20050;-45
2023/04/22 05:31:19;;;;;;;13.88;9.48;;;12.00;99.90;;;;;;5021148;28;20112;-46
2023/04/22 05:33:47;;;;;;;13.25;8.85;;;12.10;99.90;;;;;;5020119;28;20118;-43
2023/04/22 05:36:14;;;;;;;11.02;8.98;;;12.20;99.90;;;;;;5020333;28;20053;-46
2023/04/22 05:38:44;;;;;;;13.65;8.27;;;12.20;99.90;;;;;;4996704;28;20080;-42
2023/04/22 05:41:12;;;;;;;17.60;9.68;;;12.30;99.90;;;;;;5012054;28;20104;-42
2023/04/22 05:43:39;;;;;;;22.00;10.02;;;12.40;99.90;;;;;;5013508;28;20514;-44
2023/04/22 05:46:12;;;;;;;15.40;8.77;;;12.40;99.90;;;;;;5013649;28;20113;-43
2023/04/22 05:48:41;;;;;;;13.02;7.90;;;12.50;99.90;;;;;;5014797;28;20064;-45
2023/04/22 05:51:22;;;;;;;12.52;8.00;;;12.60;99.90;;;;;;5018614;28;20144;-42
2023/04/22 05:53:50;;;;;;;12.98;7.43;;;12.70;99.90;;;;;;5021882;28;20042;-46
2023/04/22 05:56:18;;;;;;;16.77;7.72;;;12.80;99.90;;;;;;5012016;28;20049;-41
2023/04/22 05:58:45;;;;;;;12.77;7.65;;;12.90;99.90;;;;;;5012230;28;20042;-43
2023/04/22 06:01:16;;;;;;;13.68;8.25;;;13.00;99.90;;;;;;4988540;28;20053;-43
2023/04/22 06:04:11;;;;;;;13.40;7.63;;;13.10;99.90;;;;;;5008433;28;20045;-45
2023/04/22 06:06:39;;;;;;;13.68;7.72;;;13.20;99.90;;;;;;5018275;28;20053;-41
2023/04/22 06:09:06;;;;;;;12.35;7.07;;;13.30;99.90;;;;;;5014081;28;20132;-47
2023/04/22 06:11:33;;;;;;;9.52;7.00;;;13.40;99.90;;;;;;5007462;28;20060;-40
2023/04/22 06:14:01;;;;;;;13.60;8.68;;;13.50;99.90;;;;;;5000226;28;20129;-43
2023/04/22 06:16:29;;;;;;;13.13;7.80;;;13.60;99.90;;;;;;5010215;28;20048;-42
2023/04/22 06:18:56;;;;;;;11.85;7.60;;;13.60;99.90;;;;;;5012875;28;20046;-42
2023/04/22 06:21:24;;;;;;;11.25;8.02;;;13.60;99.90;;;;;;4993600;28;20414;-43
2023/04/22 06:23:51;;;;;;;8.90;7.32;;;13.70;99.90;;;;;;5012240;28;20532;-40
2023/04/22 06:26:21;;;;;;;9.93;7.80;;;13.80;99.90;;;;;;5012582;28;20050;-43
2023/04/22 06:28:48;;;;;;;10.60;8.13;;;13.90;99.90;;;;;;5010826;28;20049;-42
2023/04/22 06:31:19;;;;;;;16.48;7.88;;;14.00;99.90;;;;;;4995965;28;20053;-44
2023/04/22 06:33:47;;;;;;;9.90;7.63;;;14.20;99.90;;;;;;5012274;28;20402;-42
2023/04/22 06:36:15;;;;;;;17.38;8.25;;;14.20;99.90;;;;;;5019899;28;20148;-41
2023/04/22 06:38:45;;;;;;;13.43;7.93;;;14.30;99.90;;;;;;5026788;28;20136;-42
2023/04/22 06:41:22;;;;;;;22.92;9.07;;;14.50;99.90;;;;;;5012440;28;20038;-42
2023/04/22 06:43:52;;;;;;;11.40;8.00;;;14.70;99.90;;;;;;5010581;28;20507;-39
2023/04/22 06:46:49;;;;;;;9.88;8.07;;;14.80;99.90;;;;;;5004189;28;20492;-42
2023/04/22 06:49:38;;;;;;;14.98;8.63;;;14.90;99.90;;;;;;5011007;28;20052;-47
2023/04/22 06:52:05;;;;;;;12.68;8.13;;;15.00;99.90;;;;;;5010533;28;20145;-44
2023/04/22 06:54:34;;;;;;;15.77;8.45;;;15.20;99.90;;;;;;5013475;28;20135;-46
2023/04/22 06:57:02;;;;;;;11.50;8.00;;;15.50;99.90;;;;;;5016885;28;20048;-46
2023/04/22 06:59:29;;;;;;;13.95;8.05;;;15.60;99.90;;;;;;5013485;28;20077;-46
2023/04/22 07:01:56;;;;;;;10.65;8.30;;;15.80;99.90;;;;;;5011617;28;20533;-46
2023/04/22 07:04:26;;;;;;;11.07;8.13;;;15.90;99.90;;;;;;5019535;28;20096;-48
2023/04/22 07:06:54;;;;;;;9.82;7.32;;;16.10;99.90;;;;;;5011219;28;20042;-45
2023/04/22 07:09:22;;;;;;;12.05;7.82;;;16.30;99.90;;;;;;5008621;28;20053;-45
2023/04/22 07:11:49;;;;;;;13.93;7.97;;;16.40;99.90;;;;;;5003095;28;20057;-46
2023/04/22 07:14:18;;;;;;;10.80;7.95;;;16.40;99.90;;;;;;5012972;28;20068;-51
2023/04/22 07:16:46;;;;;;;10.70;7.45;;;16.60;99.90;;;;;;5010022;28;20434;-46
2023/04/22 07:19:13;;;;;;;11.70;6.90;;;16.70;99.90;;;;;;5008373;28;20050;-45
2023/04/22 07:21:41;;;;;;;11.15;7.07;;;16.80;99.90;;;;;;5013734;28;20461;-47
2023/04/22 07:24:12;;;;;;;10.93;6.70;;;16.80;99.90;;;;;;5015529;28;20049;-45
2023/04/22 07:26:40;;;;;;;13.40;7.50;;;16.80;99.90;;;;;;5009779;28;20061;-41
2023/04/22 07:29:08;;;;;;;9.85;7.10;;;16.80;99.90;;;;;;5017646;28;20046;-41
2023/04/22 07:31:35;;;;;;;8.98;7.10;;;16.80;99.90;;;;;;5012275;28;20049;-46
2023/04/22 07:34:03;;;;;;;8.70;6.68;;;16.90;99.90;;;;;;5012498;28;20446;-45
2023/04/22 07:36:32;;;;;;;10.65;6.90;;;17.10;99.90;;;;;;5010950;28;20034;-44
2023/04/22 07:38:59;;;;;;;9.10;6.45;;;17.10;99.90;;;;;;5010579;28;20045;-45
2023/04/22 07:41:26;;;;;;;14.13;10.38;;;17.10;99.90;;;;;;5011787;28;20050;-44
2023/04/22 07:43:54;;;;;;;12.95;7.45;;;17.20;99.90;;;;;;5012314;28;20050;-45
2023/04/22 07:46:21;;;;;;;14.85;7.90;;;17.30;99.90;;;;;;5014681;28;20054;-46
2023/04/22 07:48:49;;;;;;;11.07;7.75;;;17.40;99.90;;;;;;5018970;28;20064;-44
2023/04/22 07:51:16;;;;;;;10.52;8.02;;;17.50;99.90;;;;;;5013182;28;20049;-47
2023/04/22 07:53:44;;;;;;;8.30;6.53;;;17.60;99.90;;;;;;5011870;28;20046;-48
2023/04/22 07:56:11;;;;;;;10.98;6.80;;;17.50;99.90;;;;;;5010621;28;20050;-46
2023/04/22 07:58:39;;;;;;;10.85;6.40;;;17.50;99.90;;;;;;5011742;28;20072;-46
2023/04/22 08:01:06;;;;;;;10.23;6.20;;;17.50;99.90;;;;;;5009954;28;20125;-43
2023/04/22 08:03:33;;;;;;;10.52;6.88;;;17.40;99.90;;;;;;5010133;28;20049;-42
2023/04/22 08:06:01;;;;;;;10.07;6.60;;;17.40;99.90;;;;;;5010482;28;20588;-43
2023/04/22 08:08:28;;;;;;;7.07;6.38;;;17.50;99.90;;;;;;5010979;28;20058;-42
2023/04/22 08:10:56;;;;;;;8.40;7.00;;;17.60;99.90;;;;;;5014871;28;20100;-43
2023/04/22 08:13:23;;;;;;;13.93;9.45;;;17.60;99.90;;;;;;5015410;28;20136;-41
2023/04/22 08:15:50;;;;;;;12.13;8.73;;;17.70;99.90;;;;;;5008261;28;20049;-46
2023/04/22 08:18:18;;;;;;;9.27;6.97;;;17.90;99.90;;;;;;5006260;28;20030;-48
2023/04/22 08:20:46;;;;;;;8.23;6.38;;;18.10;99.90;;;;;;5012554;28;20046;-49
2023/04/22 08:23:14;;;;;;;8.88;6.43;;;18.30;99.90;;;;;;5011156;28;20050;-45
2023/04/22 08:25:41;;;;;;;9.98;6.47;;;18.50;99.90;;;;;;5009181;28;20067;-45
2023/04/22 08:28:08;;;;;;;7.50;6.50;;;18.60;99.90;;;;;;5009942;28;20038;-46
2023/04/22 08:30:36;;;;;;;10.15;6.60;;;18.70;99.90;;;;;;5010549;28;20066;-44
2023/04/22 08:33:03;;;;;;;8.50;6.25;;;18.80;99.90;;;;;;5012258;28;20092;-46
2023/04/22 08:35:30;;;;;;;9.15;6.18;;;19.00;99.90;;;;;;5012174;28;20048;-47
2023/04/22 08:37:58;;;;;;;8.45;6.13;;;19.10;99.90;;;;;;5010845;28;20053;-45
2023/04/22 08:40:26;;;;;;;8.40;6.35;;;19.20;99.90;;;;;;5018993;28;20104;-50
2023/04/22 08:42:54;;;;;;;7.82;6.00;;;19.30;99.90;;;;;;5010233;28;20038;-49
2023/04/22 08:45:22;;;;;;;6.78;5.68;;;19.40;99.90;;;;;;5010043;28;20042;-48
2023/04/22 08:47:50;;;;;;;7.13;6.43;;;19.60;99.90;;;;;;5007239;28;20110;-49
2023/04/22 08:50:20;;;;;;;8.95;6.60;;;19.80;99.90;;;;;;5008002;28;20072;-50
2023/04/22 08:52:48;;;;;;;10.15;6.85;;;19.90;99.90;;;;;;5016930;28;20088;-49
2023/04/22 08:55:15;;;;;;;7.97;6.78;;;20.20;99.90;;;;;;5014449;28;20126;-48
2023/04/22 08:57:43;;;;;;;10.60;7.07;;;20.30;99.90;;;;;;5016237;28;20062;-50
2023/04/22 09:00:12;;;;;;;9.02;6.55;;;20.60;99.90;;;;;;5011193;28;20050;-47
2023/04/22 09:02:43;;;;;;;7.25;6.10;;;20.90;99.90;;;;;;5020084;28;20053;-46
2023/04/22 09:05:13;;;;;;;8.57;6.13;;;21.30;99.90;;;;;;5015500;28;20048;-40
2023/04/22 09:07:41;;;;;;;6.50;5.90;;;21.40;99.90;;;;;;5018316;28;20544;-46
2023/04/22 09:10:10;;;;;;;12.00;6.95;;;21.50;99.90;;;;;;5022350;28;20041;-49
2023/04/22 09:12:40;;;;;;;7.05;6.13;;;21.80;99.90;;;;;;5024127;28;20045;-50
2023/04/22 09:15:08;;;;;;;8.07;6.28;;;21.90;99.90;;;;;;5021950;28;20046;-45
2023/04/22 09:17:37;;;;;;;7.60;6.28;;;22.00;99.90;;;;;;5022489;28;20046;-41
2023/04/22 09:20:07;;;;;;;7.15;6.07;;;22.00;99.90;;;;;;5015949;28;20568;-41
2023/04/22 09:22:39;;;;;;;8.52;6.25;;;21.80;99.90;;;;;;5023662;28;20064;-48
2023/04/22 09:25:18;;;;;;;8.50;6.28;;;21.80;99.90;;;;;;5023797;28;20049;-45
2023/04/22 09:27:50;;;;;;;7.22;6.53;;;21.80;99.90;;;;;;5023063;28;20101;-44
2023/04/22 09:30:29;;;;;;;7.85;6.13;;;21.90;99.90;;;;;;5021874;28;20121;-46
2023/04/22 09:32:58;;;;;;;7.28;6.18;;;21.90;99.90;;;;;;5019019;28;20056;-42
2023/04/22 09:35:31;;;;;;;12.00;6.43;;;21.80;99.90;;;;;;5015316;28;20061;-41
2023/04/22 09:38:01;;;;;;;7.50;6.05;;;21.60;99.90;;;;;;5021117;28;20038;-50
2023/04/22 09:40:30;;;;;;;6.43;5.70;;;21.60;99.90;;;;;;5026754;28;20060;-45
2023/04/22 09:42:59;;;;;;;8.63;5.63;;;21.70;99.90;;;;;;5019971;28;20182;-43
2023/04/22 09:45:41;;;;;;;14.77;10.65;;;21.70;99.90;;;;;;5021154;28;20117;-47
2023/04/22 09:48:13;;;;;;;6.45;5.70;;;21.70;99.90;;;;;;5016694;28;20240;-42
2023/04/22 09:50:45;;;;;;;;;;;21.70;99.90;;;;;;5030532;23;20052;-37
2023/04/22 09:53:20;;;;;;;7.00;5.00;;;21.70;99.90;;;;;;5013453;28;20051;-48
2023/04/22 09:55:53;;;;;;;6.45;5.40;;;21.90;99.90;;;;;;5027339;28;20049;-48
2023/04/22 09:58:26;;;;;;;6.00;5.40;;;22.00;99.90;;;;;;5019353;28;20565;-46
2023/04/22 10:00:55;;;;;;;6.82;5.20;;;21.90;99.40;;;;;;5023606;28;20116;-37
2023/04/22 10:03:23;;;;;;;7.53;6.07;;;22.10;99.30;;;;;;5035846;28;20091;-40
2023/04/22 10:05:51;;;;;;;8.18;5.50;;;22.30;98.90;;;;;;5020527;28;20473;-39
2023/04/22 10:08:18;;;;;;;7.03;5.70;;;22.50;98.50;;;;;;5031338;28;20361;-44
2023/04/22 10:10:45;;;;;;;6.72;5.57;;;22.20;97.30;;;;;;5042734;28;20417;-48
2023/04/22 10:13:13;;;;;;;7.15;5.53;;;22.30;98.00;;;;;;5041437;28;20045;-38
2023/04/22 10:15:49;;;;;;;6.22;5.63;;;22.50;98.20;;;;;;5040539;28;20049;-38
2023/04/22 10:18:21;;;;;;;10.48;5.47;;;22.90;97.60;;;;;;5032468;28;20045;-38
2023/04/22 10:20:50;;;;;;;6.07;5.47;;;23.20;97.00;;;;;;5029216;28;20041;-47
2023/04/22 10:23:19;;;;;;;5.68;5.05;;;23.40;96.30;;;;;;5028518;28;20052;-39
2023/04/22 10:25:48;;;;;;;7.43;5.53;;;23.60;95.30;;;;;;5030894;28;20477;-37
2023/04/22 10:28:16;;;;;;;6.05;5.28;;;23.90;95.40;;;;;;5031900;28;20129;-37
2023/04/22 10:30:43;;;;;;;8.70;7.50;;;24.20;94.50;;;;;;5038452;28;20049;-38
2023/04/22 10:33:19;;;;;;;5.70;5.20;;;24.40;94.00;;;;;;5037126;28;20124;-46
2023/04/22 10:36:07;;;;;;;7.43;5.30;;;24.20;93.60;;;;;;5034140;28;20033;-44
2023/04/22 10:38:36;;;;;;;5.53;4.95;;;24.30;92.90;;;;;;5033290;28;20050;-47
2023/04/22 10:41:03;;;;;;;6.05;5.07;;;24.50;92.00;;;;;;5039952;28;20041;-39
2023/04/22 10:43:48;;;;;;;6.47;5.32;;;24.50;91.20;;;;;;5046156;28;20048;-47
2023/04/22 10:46:36;;;;;;;6.00;5.15;;;24.50;91.00;;;;;;5029243;28;20099;-38
2023/04/22 10:49:17;;;;;;;6.05;5.15;;;24.60;90.70;;;;;;5038123;28;20041;-44
2023/04/22 10:52:06;;;;;;;6.75;5.03;;;24.50;90.30;;;;;;5029973;28;20064;-45
2023/04/22 10:54:36;;;;;;;5.50;4.90;;;24.10;90.30;;;;;;5031126;28;20049;-47
2023/04/22 10:57:15;;;;;;;5.32;4.82;;;23.70;90.30;;;;;;5026794;28;21156;-46
2023/04/22 10:59:53;;;;;;;5.30;4.80;;;23.70;90.10;;;;;;5036006;28;20044;-38
2023/04/22 11:02:22;;;;;;;5.18;4.70;;;23.70;90.50;;;;;;5025556;28;20042;-39
2023/04/22 11:04:53;;;;;;;5.65;4.80;;;24.10;90.40;;;;;;5028434;28;20052;-38
2023/04/22 11:07:26;;;;;;;6.43;5.22;;;24.60;88.60;;;;;;5022074;28;20061;-38
2023/04/22 11:10:05;;;;;;;5.30;4.80;;;25.00;87.70;;;;;;5013034;28;20052;-44
2023/04/22 11:12:38;;;;;;;4.75;4.35;;;25.40;86.30;;;;;;5022375;28;20111;-38
2023/04/22 11:15:21;;;;;;;4.93;4.53;;;25.80;85.30;;;;;;5019337;28;20053;-38
2023/04/22 11:17:53;;;;;;;7.90;5.90;;;26.30;82.90;;;;;;5021413;28;20124;-40
2023/04/22 11:20:21;;;;;;;6.32;5.50;;;26.30;82.30;;;;;;5022576;28;20042;-40
2023/04/22 11:22:55;;;;;;;6.20;5.03;;;26.80;82.60;;;;;;5021832;28;20056;-40
2023/04/22 11:25:24;;;;;;;6.15;4.90;;;27.10;79.20;;;;;;5030315;28;20069;-39
2023/04/22 11:27:53;;;;;;;7.22;5.47;;;27.50;78.60;;;;;;5024754;28;20793;-37
2023/04/22 11:30:22;;;;;;;4.88;4.38;;;27.70;77.40;;;;;;5023055;28;20045;-38
2023/04/22 11:32:54;;;;;;;6.57;4.97;;;27.70;75.80;;;;;;5029860;28;20050;-46
2023/04/22 11:35:27;;;;;;;5.25;4.65;;;27.60;75.50;;;;;;5021345;28;20037;-47
2023/04/22 11:37:57;;;;;;;6.85;4.80;;;27.60;75.50;;;;;;5029454;28;20038;-38
2023/04/22 11:40:32;;;;;;;8.38;6.20;;;28.20;75.70;;;;;;5027919;28;20053;-37
2023/04/22 11:43:06;;;;;;;6.78;4.90;;;28.50;74.30;;;;;;5027723;28;20033;-49
2023/04/22 11:45:35;;;;;;;6.85;4.65;;;28.60;73.20;;;;;;5024711;28;20490;-39
2023/04/22 11:48:05;;;;;;;5.25;4.63;;;28.90;72.30;;;;;;5019346;28;20469;-39
2023/04/22 11:50:35;;;;;;;7.63;4.50;;;29.20;71.10;;;;;;5027818;28;20055;-46
2023/04/22 11:53:11;;;;;;;6.00;4.50;;;29.40;69.60;;;;;;5027968;28;20060;-38
2023/04/22 11:55:41;;;;;;;4.30;3.90;;;29.20;69.20;;;;;;5025801;28;20034;-39
2023/04/22 11:58:12;;;;;;;4.40;4.00;;;29.50;68.70;;;;;;5027398;28;20450;-39
2023/04/22 12:00:43;;;;;;;6.18;4.28;;;29.90;67.20;;;;;;5019199;28;20069;-47
2023/04/22 12:03:21;;;;;;;;;;;29.70;66.70;;;;;;5022891;28;20056;-47
2023/04/22 12:05:52;;;;;;;6.15;4.40;;;29.80;66.50;;;;;;5030590;28;19921;-41
2023/04/22 12:08:22;;;;;;;6.15;4.70;;;30.50;66.80;;;;;;5013822;28;20268;-38
2023/04/22 12:10:55;;;;;;;4.60;4.20;;;30.90;65.90;;;;;;5028074;28;20041;-39
2023/04/22 12:13:25;;;;;;;4.32;3.92;;;30.80;62.00;;;;;;5020747;28;20047;-50
2023/04/22 12:16:08;;;;;;;5.28;4.78;;;29.90;61.40;;;;;;5027781;28;20045;-36
2023/04/22 12:18:48;;;;;;;5.72;4.90;;;30.20;63.60;;;;;;5026422;28;20110;-38
2023/04/22 12:21:22;;;;;;;6.10;4.63;;;31.10;64.20;;;;;;5027067;28;20049;-51
2023/04/22 12:23:54;;;;;;;9.52;7.57;;;31.40;61.90;;;;;;5025908;28;20038;-45
2023/04/22 12:26:25;;;;;;;6.93;4.05;;;31.00;59.70;;;;;;5024642;28;20049;-46
2023/04/22 12:28:56;;;;;;;4.65;4.25;;;29.60;60.20;;;;;;5025381;28;20092;-46
2023/04/22 12:31:24;;;;;;;5.07;4.55;;;29.50;60.90;;;;;;5024819;28;20475;-37
2023/04/22 12:33:52;;;;;;;6.25;5.05;;;29.60;61.40;;;;;;5029299;28;20104;-38
2023/04/22 12:36:21;;;;;;;4.60;4.20;;;30.30;60.80;;;;;;5015612;28;20045;-40
2023/04/22 12:38:50;;;;;;;5.47;4.60;;;30.70;60.70;;;;;;5028284;28;20045;-38
2023/04/22 12:41:17;;;;;;;5.88;4.40;;;30.60;60.20;;;;;;5024186;28;20422;-45
2023/04/22 12:43:45;;;;;;;5.70;4.90;;;30.40;60.50;;;;;;5029668;28;20052;-47
2023/04/22 12:46:12;;;;;;;5.15;4.65;;;30.30;61.30;;;;;;5031891;28;20049;-44
2023/04/22 12:48:41;;;;;;;5.85;4.90;;;30.20;61.80;;;;;;5031805;28;20073;-44
2023/04/22 12:51:08;;;;;;;9.10;5.10;;;29.90;61.90;;;;;;5031185;28;20068;-39
2023/04/22 12:53:36;;;;;;;5.55;5.00;;;30.20;61.90;;;;;;5032496;28;20053;-40